Time;durP1;ratioP1;P1;durP2;ratioP2;P2;SDS_P1;SDS_P2;PMS_P1;PMS_P2;Temp;Humidity;BMP_temperature;BMP_pressure;BME280_temperature;BME280_humidity;BME280_pressure;Samples;Min_cycle;Max_cycle;Signal;HPM_P1;HPM_P2
2021/01/09 00:00:05;;;;;;;8.38;4.43;;;4.00;99.90;;;;;;5063062;28;20242;-80
2021/01/09 00:02:38;;;;;;;5.25;2.97;;;4.20;99.90;;;;;;5059879;28;20612;-80
2021/01/09 00:05:07;;;;;;;4.18;3.40;;;4.30;99.90;;;;;;5058527;28;20224;-81
2021/01/09 00:07:36;;;;;;;5.40;4.93;;;4.30;99.90;;;;;;5045652;28;20193;-82
2021/01/09 00:10:05;;;;;;;5.80;3.78;;;4.30;99.90;;;;;;5076704;28;20286;-80
2021/01/09 00:12:33;;;;;;;4.28;3.85;;;4.40;99.90;;;;;;5065619;28;20244;-80
2021/01/09 00:15:00;;;;;;;6.88;5.10;;;4.40;99.90;;;;;;5062834;28;20230;-81
2021/01/09 00:17:28;;;;;;;7.38;4.35;;;4.40;99.90;;;;;;5062426;28;20184;-79
2021/01/09 00:19:55;;;;;;;6.78;5.70;;;4.30;99.90;;;;;;5061569;28;20180;-80
2021/01/09 00:22:22;;;;;;;5.78;3.88;;;4.20;99.90;;;;;;5062096;28;20184;-81
2021/01/09 00:24:49;;;;;;;6.32;3.92;;;4.20;99.90;;;;;;5064639;28;20235;-83
2021/01/09 00:27:17;;;;;;;6.93;4.28;;;4.10;99.90;;;;;;5064507;28;20200;-80
2021/01/09 00:29:45;;;;;;;5.68;4.78;;;4.00;99.90;;;;;;5060067;28;20212;-82
2021/01/09 00:32:13;;;;;;;5.30;4.40;;;4.00;99.90;;;;;;5062496;28;20276;-80
2021/01/09 00:34:41;;;;;;;6.25;4.15;;;4.10;99.90;;;;;;5062341;28;20217;-80
2021/01/09 00:37:08;;;;;;;6.63;3.75;;;4.20;99.90;;;;;;5061643;28;20704;-82
2021/01/09 00:39:35;;;;;;;6.55;3.58;;;4.40;99.90;;;;;;5062355;28;20267;-80
2021/01/09 00:42:02;;;;;;;8.90;4.85;;;4.30;99.90;;;;;;5061519;28;20647;-81
2021/01/09 00:44:30;;;;;;;5.78;3.40;;;4.30;99.90;;;;;;5062398;28;20204;-80
2021/01/09 00:46:59;;;;;;;6.85;5.82;;;4.30;99.90;;;;;;5061484;28;20521;-82
2021/01/09 00:49:26;;;;;;;6.07;5.05;;;4.30;99.90;;;;;;5062218;28;20196;-81
2021/01/09 00:51:54;;;;;;;4.15;3.13;;;4.20;99.90;;;;;;5059872;28;20239;-81
2021/01/09 00:54:22;;;;;;;6.47;4.25;;;4.20;99.90;;;;;;5061123;28;20790;-81
2021/01/09 00:56:52;;;;;;;4.93;4.38;;;4.20;99.90;;;;;;5060812;28;20185;-79
2021/01/09 00:59:20;;;;;;;7.38;4.43;;;4.30;99.90;;;;;;5061285;28;20577;-83
2021/01/09 01:01:50;;;;;;;6.55;4.43;;;4.10;99.90;;;;;;5061599;28;20201;-81
2021/01/09 01:04:19;;;;;;;5.85;4.25;;;4.00;99.90;;;;;;5062862;28;20270;-81
2021/01/09 01:06:46;;;;;;;5.40;4.63;;;4.10;99.90;;;;;;5063310;28;20177;-80
2021/01/09 01:09:14;;;;;;;5.45;2.97;;;4.10;99.90;;;;;;5059819;28;20208;-81
2021/01/09 01:11:41;;;;;;;9.75;5.57;;;4.00;99.90;;;;;;5061539;28;20193;-81
2021/01/09 01:14:09;;;;;;;6.47;4.63;;;4.00;99.90;;;;;;5044636;28;20263;-80
2021/01/09 01:16:37;;;;;;;4.90;3.70;;;4.10;99.90;;;;;;5059912;28;20264;-79
2021/01/09 01:19:05;;;;;;;9.93;4.70;;;4.20;99.90;;;;;;5060190;28;20201;-80
2021/01/09 01:21:35;;;;;;;6.20;4.03;;;4.30;99.90;;;;;;5060952;28;20200;-79
2021/01/09 01:24:03;;;;;;;6.95;4.25;;;4.20;99.90;;;;;;5062394;28;20200;-79
2021/01/09 01:26:31;;;;;;;6.43;3.90;;;4.10;99.90;;;;;;5065328;28;20185;-79
2021/01/09 01:28:59;;;;;;;6.65;4.90;;;4.10;99.90;;;;;;5049679;28;20279;-79
2021/01/09 01:31:27;;;;;;;7.28;5.82;;;4.20;99.90;;;;;;5064749;28;20184;-81
2021/01/09 01:33:55;;;;;;;6.15;4.93;;;4.30;99.90;;;;;;5061660;28;20220;-79
2021/01/09 01:36:22;;;;;;;7.00;4.82;;;4.20;99.90;;;;;;5062380;28;20189;-81
2021/01/09 01:38:50;;;;;;;5.28;3.83;;;4.10;99.90;;;;;;5062334;28;20267;-80
2021/01/09 01:41:17;;;;;;;7.63;4.38;;;4.10;99.90;;;;;;5063830;28;20189;-77
2021/01/09 01:43:44;;;;;;;6.68;4.72;;;4.20;99.90;;;;;;5062817;28;20251;-79
2021/01/09 01:46:15;;;;;;;6.35;4.25;;;4.10;99.90;;;;;;5063542;28;20189;-79
2021/01/09 01:48:43;;;;;;;8.27;5.90;;;3.90;99.90;;;;;;5064581;28;20200;-79
2021/01/09 01:51:13;;;;;;;9.85;4.25;;;3.80;99.90;;;;;;5066992;28;20249;-78
2021/01/09 01:53:41;;;;;;;6.50;5.40;;;3.80;99.90;;;;;;5072025;28;20201;-77
2021/01/09 01:56:09;;;;;;;7.10;4.55;;;3.90;99.90;;;;;;5075529;28;20187;-76
2021/01/09 01:58:37;;;;;;;4.40;3.40;;;3.80;99.90;;;;;;5052745;28;20200;-79
2021/01/09 02:01:05;;;;;;;9.57;3.80;;;3.60;99.90;;;;;;5069671;28;20268;-78
2021/01/09 02:03:35;;;;;;;6.82;3.80;;;3.70;99.90;;;;;;5074710;28;20557;-77
2021/01/09 02:06:08;;;;;;;8.38;5.00;;;3.60;99.90;;;;;;5073072;28;20173;-78
2021/01/09 02:08:49;;;;;;;8.07;3.70;;;3.60;99.90;;;;;;5068510;28;20239;-78
2021/01/09 02:11:33;;;;;;;4.35;3.83;;;3.60;99.90;;;;;;5065845;28;20200;-78
2021/01/09 02:14:03;;;;;;;2.97;2.47;;;3.80;99.90;;;;;;5066681;28;20228;-80
2021/01/09 02:16:32;;;;;;;8.18;5.13;;;3.80;99.90;;;;;;5069080;28;20240;-80
2021/01/09 02:19:01;;;;;;;10.65;5.78;;;3.90;99.90;;;;;;5071004;28;20181;-79
2021/01/09 02:21:37;;;;;;;3.60;3.10;;;3.90;99.90;;;;;;5064084;28;20243;-79
2021/01/09 02:24:12;;;;;;;5.22;4.70;;;3.90;99.90;;;;;;5073908;28;20216;-77
2021/01/09 02:26:39;;;;;;;6.28;3.83;;;4.00;99.90;;;;;;5056977;28;20196;-78
2021/01/09 02:29:07;;;;;;;8.30;3.28;;;4.10;99.90;;;;;;5073309;28;20268;-79
2021/01/09 02:31:39;;;;;;;6.28;3.80;;;4.10;99.90;;;;;;5074558;28;20215;-79
2021/01/09 02:34:10;;;;;;;7.97;4.00;;;4.00;99.90;;;;;;5073305;28;20290;-78
2021/01/09 02:36:38;;;;;;;4.60;2.75;;;4.10;99.90;;;;;;5063975;28;20197;-78
2021/01/09 02:39:06;;;;;;;5.95;4.10;;;4.10;99.90;;;;;;5059980;28;20196;-80
2021/01/09 02:41:36;;;;;;;6.13;4.28;;;4.00;99.90;;;;;;5043269;28;20671;-80
2021/01/09 02:44:09;;;;;;;5.22;3.20;;;3.90;99.90;;;;;;5060783;28;20235;-79
2021/01/09 02:46:37;;;;;;;4.45;3.75;;;3.70;99.90;;;;;;5061014;28;20282;-78
2021/01/09 02:49:05;;;;;;;5.82;3.97;;;3.50;99.90;;;;;;5061558;28;20192;-79
2021/01/09 02:51:32;;;;;;;10.98;4.20;;;3.40;99.90;;;;;;5059907;28;20196;-79
2021/01/09 02:53:59;;;;;;;6.72;4.82;;;3.30;99.90;;;;;;5060281;28;20205;-78
2021/01/09 02:56:26;;;;;;;5.20;4.70;;;3.40;99.90;;;;;;5068353;28;20157;-79
2021/01/09 02:58:54;;;;;;;5.55;3.47;;;3.60;99.90;;;;;;5067784;28;20173;-80
2021/01/09 03:01:26;;;;;;;6.35;4.55;;;3.60;99.90;;;;;;5064515;28;20415;-78
2021/01/09 03:03:56;;;;;;;5.80;4.63;;;3.50;99.90;;;;;;5062379;28;20227;-79
2021/01/09 03:06:23;;;;;;;4.05;2.63;;;3.40;99.90;;;;;;5043949;28;20193;-80
2021/01/09 03:08:51;;;;;;;8.90;4.22;;;3.40;99.90;;;;;;5058357;28;20303;-80
2021/01/09 03:11:18;;;;;;;3.40;2.70;;;3.40;99.90;;;;;;5059114;28;20185;-80
2021/01/09 03:13:46;;;;;;;3.95;3.03;;;3.40;99.90;;;;;;5074564;22;20196;-73
2021/01/09 03:16:14;;;;;;;5.63;3.17;;;3.50;99.90;;;;;;5051923;28;20177;-76
2021/01/09 03:18:42;;;;;;;6.07;3.90;;;3.60;99.90;;;;;;5051375;28;20572;-75
2021/01/09 03:21:09;;;;;;;6.07;4.95;;;3.80;99.90;;;;;;5055696;28;20622;-75
2021/01/09 03:23:36;;;;;;;5.72;3.63;;;3.80;99.90;;;;;;5056810;28;20865;-76
2021/01/09 03:26:03;;;;;;;4.90;3.05;;;3.80;99.90;;;;;;5056066;28;20627;-76
2021/01/09 03:28:31;;;;;;;5.97;3.10;;;3.70;99.90;;;;;;5055451;28;20181;-74
2021/01/09 03:30:58;;;;;;;4.32;3.30;;;3.70;99.90;;;;;;5055486;28;20173;-75
2021/01/09 03:33:29;;;;;;;5.97;3.20;;;3.70;99.90;;;;;;5055802;28;20185;-74
2021/01/09 03:35:56;;;;;;;8.00;4.75;;;3.60;99.90;;;;;;5056132;28;20173;-74
2021/01/09 03:38:23;;;;;;;6.97;4.35;;;3.60;99.90;;;;;;5055870;28;20173;-75
2021/01/09 03:40:50;;;;;;;3.00;2.75;;;3.50;99.90;;;;;;5055333;28;20195;-75
2021/01/09 03:43:17;;;;;;;6.85;3.30;;;3.50;99.90;;;;;;5055302;28;20173;-74
2021/01/09 03:45:44;;;;;;;5.22;4.10;;;3.80;99.90;;;;;;5055378;28;20254;-75
2021/01/09 03:48:12;;;;;;;7.30;6.10;;;3.90;99.90;;;;;;5055767;28;20193;-74
2021/01/09 03:50:41;;;;;;;5.20;3.83;;;3.90;99.90;;;;;;5053830;28;20192;-74
2021/01/09 03:53:08;;;;;;;7.20;3.85;;;4.00;99.90;;;;;;5055590;28;20264;-74
2021/01/09 03:55:35;;;;;;;5.28;4.75;;;3.90;99.90;;;;;;5055266;28;20577;-74
2021/01/09 03:58:02;;;;;;;6.78;3.50;;;3.90;99.90;;;;;;5055929;28;20206;-74
2021/01/09 04:00:29;;;;;;;5.65;3.95;;;4.10;99.90;;;;;;5055261;28;20199;-74
2021/01/09 04:02:56;;;;;;;7.85;4.65;;;4.00;99.90;;;;;;5053651;28;20686;-74
2021/01/09 04:05:23;;;;;;;11.32;3.35;;;4.00;99.90;;;;;;5070217;28;20216;-74
2021/01/09 04:07:51;;;;;;;4.40;3.65;;;4.00;99.90;;;;;;5054896;28;20176;-75
2021/01/09 04:10:18;;;;;;;6.03;4.18;;;3.80;99.90;;;;;;5054218;28;20204;-74
2021/01/09 04:12:45;;;;;;;5.43;3.67;;;3.90;99.90;;;;;;5056113;28;20165;-74
2021/01/09 04:15:13;;;;;;;7.30;3.25;;;3.90;99.90;;;;;;5056188;28;20223;-74
2021/01/09 04:17:40;;;;;;;4.40;3.80;;;3.80;99.90;;;;;;5057517;28;20797;-74
2021/01/09 04:20:08;;;;;;;7.50;5.00;;;4.00;99.90;;;;;;5059680;28;20177;-75
2021/01/09 04:22:36;;;;;;;4.45;3.53;;;4.10;99.90;;;;;;5060752;28;20248;-75
2021/01/09 04:25:06;;;;;;;9.10;5.30;;;4.10;99.90;;;;;;5057502;28;20248;-75
2021/01/09 04:27:33;;;;;;;6.55;5.13;;;4.00;99.90;;;;;;5054696;28;20184;-75
2021/01/09 04:30:00;;;;;;;7.60;5.00;;;4.00;99.90;;;;;;5054632;28;20200;-75
2021/01/09 04:32:29;;;;;;;3.95;3.08;;;3.80;99.90;;;;;;5054338;28;20173;-76
2021/01/09 04:34:57;;;;;;;6.97;5.63;;;3.80;99.90;;;;;;5054970;28;20205;-75
2021/01/09 04:37:24;;;;;;;5.10;2.63;;;3.90;99.90;;;;;;5054474;28;20259;-75
2021/01/09 04:39:52;;;;;;;7.97;5.30;;;3.80;99.90;;;;;;5054621;28;20305;-76
2021/01/09 04:42:20;;;;;;;6.70;4.57;;;3.80;99.90;;;;;;5054343;28;20192;-75
2021/01/09 04:44:47;;;;;;;6.47;3.30;;;3.70;99.90;;;;;;5054396;28;20208;-76
2021/01/09 04:47:15;;;;;;;5.60;3.45;;;3.70;99.90;;;;;;5053039;28;20628;-76
2021/01/09 04:49:42;;;;;;;6.97;5.68;;;3.70;99.90;;;;;;5053879;28;20196;-75
2021/01/09 04:52:10;;;;;;;6.88;4.50;;;3.70;99.90;;;;;;5054395;28;20231;-75
2021/01/09 04:54:39;;;;;;;4.22;3.35;;;3.60;99.90;;;;;;5053246;28;20212;-76
2021/01/09 04:57:06;;;;;;;6.22;4.63;;;3.50;99.90;;;;;;5054667;28;20249;-76
2021/01/09 04:59:37;;;;;;;6.50;4.28;;;3.50;99.90;;;;;;5054731;28;20196;-76
2021/01/09 05:02:05;;;;;;;10.05;4.70;;;3.40;99.90;;;;;;5054192;28;20268;-76
2021/01/09 05:04:33;;;;;;;5.38;3.42;;;3.50;99.90;;;;;;5053960;28;20213;-75
2021/01/09 05:07:00;;;;;;;6.05;4.43;;;3.60;99.90;;;;;;5055584;28;20182;-75
2021/01/09 05:09:27;;;;;;;4.55;3.35;;;3.70;99.90;;;;;;5055648;28;20199;-75
2021/01/09 05:11:57;;;;;;;6.20;3.65;;;3.70;99.90;;;;;;5055194;28;20177;-74
2021/01/09 05:14:27;;;;;;;9.02;4.30;;;3.80;99.90;;;;;;5055166;28;20742;-75
2021/01/09 05:16:57;;;;;;;5.15;3.78;;;3.70;99.90;;;;;;5055197;28;20196;-75
2021/01/09 05:19:28;;;;;;;3.85;2.35;;;3.80;99.90;;;;;;5054754;28;20179;-75
2021/01/09 05:21:57;;;;;;;7.43;4.38;;;3.90;99.90;;;;;;5055184;28;20191;-75
2021/01/09 05:24:25;;;;;;;5.40;3.90;;;3.80;99.90;;;;;;5055751;28;20289;-75
2021/01/09 05:26:54;;;;;;;5.07;3.47;;;3.70;99.90;;;;;;5053548;28;20191;-75
2021/01/09 05:29:22;;;;;;;6.13;2.95;;;3.70;99.90;;;;;;5055297;28;20574;-75
2021/01/09 05:31:49;;;;;;;8.60;3.85;;;3.70;99.90;;;;;;5055122;28;20219;-75
2021/01/09 05:34:18;;;;;;;4.32;3.78;;;3.80;99.90;;;;;;5053837;28;20216;-75
2021/01/09 05:36:45;;;;;;;3.90;2.05;;;3.80;99.90;;;;;;5054608;28;20235;-75
2021/01/09 05:39:12;;;;;;;6.20;2.70;;;4.00;99.90;;;;;;5053915;28;20185;-75
2021/01/09 05:41:42;;;;;;;5.78;2.80;;;4.00;99.90;;;;;;5054820;28;20184;-75
2021/01/09 05:44:10;;;;;;;5.60;4.00;;;4.00;99.90;;;;;;5053285;28;20296;-75
2021/01/09 05:46:39;;;;;;;4.60;2.85;;;3.90;99.90;;;;;;5054201;28;20192;-75
2021/01/09 05:49:08;;;;;;;5.25;3.22;;;3.70;99.90;;;;;;5054027;28;20565;-75
2021/01/09 05:51:38;;;;;;;3.75;2.70;;;3.50;99.90;;;;;;5055116;28;20180;-76
2021/01/09 05:54:06;;;;;;;4.53;3.08;;;3.00;99.90;;;;;;5054568;28;20219;-75
2021/01/09 05:56:39;;;;;;;5.15;3.33;;;2.90;99.90;;;;;;5053745;28;20260;-74
2021/01/09 05:59:06;;;;;;;9.07;4.32;;;2.40;99.90;;;;;;5053905;28;20169;-75
2021/01/09 06:01:36;;;;;;;8.00;4.63;;;2.30;99.90;;;;;;5054474;28;20552;-75
2021/01/09 06:04:06;;;;;;;10.20;3.55;;;2.30;99.90;;;;;;5054316;28;20712;-75
2021/01/09 06:06:46;;;;;;;3.97;2.65;;;2.10;99.90;;;;;;5054955;28;20255;-75
2021/01/09 06:09:20;;;;;;;5.30;3.30;;;2.20;99.90;;;;;;5053799;28;20192;-75
2021/01/09 06:11:53;;;;;;;9.57;4.25;;;2.50;99.90;;;;;;5053919;28;20180;-75
2021/01/09 06:14:24;;;;;;;4.70;2.33;;;2.70;99.90;;;;;;5053264;28;20304;-74
2021/01/09 06:16:53;;;;;;;6.22;3.90;;;2.90;99.90;;;;;;5053675;28;20181;-75
2021/01/09 06:19:21;;;;;;;7.95;4.90;;;2.90;99.90;;;;;;5053764;28;20222;-75
2021/01/09 06:21:49;;;;;;;5.63;3.60;;;3.00;99.90;;;;;;5052862;28;20180;-75
2021/01/09 06:24:17;;;;;;;4.13;3.55;;;2.80;99.90;;;;;;5052893;28;20217;-75
2021/01/09 06:26:45;;;;;;;3.38;2.53;;;2.60;99.90;;;;;;5052444;28;20188;-75
2021/01/09 06:29:19;;;;;;;7.63;3.90;;;2.70;99.90;;;;;;5052697;28;20193;-75
2021/01/09 06:31:52;;;;;;;5.90;3.22;;;2.80;99.90;;;;;;5053104;28;20176;-75
2021/01/09 06:34:21;;;;;;;5.28;3.10;;;2.60;99.90;;;;;;5052746;28;20301;-75
2021/01/09 06:36:54;;;;;;;7.95;2.60;;;2.70;99.90;;;;;;5053216;28;20176;-75
2021/01/09 06:39:24;;;;;;;9.15;4.75;;;2.80;99.90;;;;;;5052990;28;20200;-76
2021/01/09 06:41:55;;;;;;;4.85;3.30;;;3.00;99.90;;;;;;5053159;28;20290;-77
2021/01/09 06:44:24;;;;;;;4.82;3.38;;;3.20;99.90;;;;;;5068720;28;20586;-75
2021/01/09 06:46:52;;;;;;;5.72;3.47;;;3.40;99.90;;;;;;5053074;28;20181;-75
2021/01/09 06:49:20;;;;;;;4.25;3.38;;;3.30;99.90;;;;;;5052615;28;20196;-75
2021/01/09 06:51:54;;;;;;;6.25;3.92;;;2.90;99.90;;;;;;5052715;28;20251;-75
2021/01/09 06:54:23;;;;;;;5.75;3.63;;;2.90;99.90;;;;;;5052622;28;20234;-75
2021/01/09 06:56:52;;;;;;;4.93;2.55;;;3.00;99.90;;;;;;5056223;28;20189;-75
2021/01/09 06:59:29;;;;;;;3.53;3.20;;;3.10;99.90;;;;;;5057007;28;20235;-75
2021/01/09 07:02:17;;;;;;;2.78;2.58;;;2.90;99.90;;;;;;5056699;28;20177;-75
2021/01/09 07:05:03;;;;;;;5.45;3.10;;;3.70;99.90;;;;;;5056567;28;20215;-75
2021/01/09 07:07:38;;;;;;;6.78;3.65;;;3.70;99.90;;;;;;5056923;28;20726;-75
2021/01/09 07:10:18;;;;;;;7.47;3.28;;;3.50;99.90;;;;;;5056289;28;20692;-76
2021/01/09 07:12:51;;;;;;;4.15;3.30;;;3.50;99.90;;;;;;5056394;28;20211;-75
2021/01/09 07:15:19;;;;;;;5.78;3.38;;;3.50;99.90;;;;;;5055916;28;20656;-75
2021/01/09 07:17:51;;;;;;;5.75;3.05;;;3.50;99.90;;;;;;5056242;28;20551;-75
2021/01/09 07:20:21;;;;;;;5.25;3.20;;;3.50;99.90;;;;;;5071302;28;20185;-76
2021/01/09 07:22:52;;;;;;;4.63;2.72;;;3.00;99.90;;;;;;5054665;28;20193;-75
2021/01/09 07:25:30;;;;;;;7.20;3.83;;;3.10;99.90;;;;;;5055766;28;20235;-75
2021/01/09 07:27:59;;;;;;;7.05;3.83;;;3.40;99.90;;;;;;5071468;28;20212;-76
2021/01/09 07:30:28;;;;;;;5.47;3.28;;;3.80;99.90;;;;;;5072833;28;20713;-75
2021/01/09 07:32:56;;;;;;;4.97;2.20;;;4.00;99.90;;;;;;5055370;28;20204;-75
2021/01/09 07:35:25;;;;;;;7.30;3.65;;;4.00;99.90;;;;;;5056126;28;20205;-75
2021/01/09 07:37:58;;;;;;;8.40;3.92;;;4.00;99.90;;;;;;5053890;28;20185;-75
2021/01/09 07:40:28;;;;;;;6.00;2.80;;;4.00;99.90;;;;;;5055690;28;20169;-75
2021/01/09 07:42:55;;;;;;;4.85;4.45;;;4.10;99.90;;;;;;5054426;28;20204;-75
2021/01/09 07:45:22;;;;;;;6.72;4.10;;;4.10;99.90;;;;;;5055555;28;20247;-75
2021/01/09 07:47:50;;;;;;;7.15;3.53;;;4.00;99.90;;;;;;5055758;28;20631;-76
2021/01/09 07:50:19;;;;;;;4.88;2.95;;;3.90;99.90;;;;;;5055572;28;20193;-75
2021/01/09 07:52:47;;;;;;;5.85;4.95;;;3.50;99.90;;;;;;5054222;28;20200;-75
2021/01/09 07:55:18;;;;;;;10.75;5.80;;;3.70;99.90;;;;;;5055370;28;20208;-76
2021/01/09 07:57:46;;;;;;;10.13;4.13;;;3.70;99.90;;;;;;5055459;28;20180;-76
2021/01/09 08:00:18;;;;;;;8.75;3.83;;;3.70;99.90;;;;;;5055343;28;20204;-76
2021/01/09 08:02:46;;;;;;;6.55;5.50;;;3.80;99.90;;;;;;5055565;28;20180;-74
2021/01/09 08:05:19;;;;;;;5.10;3.83;;;3.70;99.90;;;;;;5056182;28;20242;-74
2021/01/09 08:07:48;;;;;;;5.80;4.43;;;3.80;99.90;;;;;;5055631;28;20192;-75
2021/01/09 08:10:23;;;;;;;9.25;6.03;;;3.70;99.90;;;;;;5053900;28;20236;-74
2021/01/09 08:12:56;;;;;;;10.48;4.88;;;3.50;99.90;;;;;;5055133;28;20187;-75
2021/01/09 08:15:25;;;;;;;6.93;5.63;;;3.20;99.90;;;;;;5053739;28;20216;-75
2021/01/09 08:17:52;;;;;;;5.95;2.83;;;3.00;99.90;;;;;;5070289;28;20247;-75
2021/01/09 08:20:19;;;;;;;5.82;3.60;;;3.20;99.90;;;;;;5055163;28;20180;-75
2021/01/09 08:22:50;;;;;;;7.65;5.03;;;3.50;99.90;;;;;;5057342;28;20511;-75
2021/01/09 08:25:18;;;;;;;5.55;2.97;;;3.90;99.90;;;;;;5057669;28;20213;-75
2021/01/09 08:27:49;;;;;;;7.57;4.03;;;4.20;99.90;;;;;;5053816;28;20181;-75
2021/01/09 08:30:18;;;;;;;6.45;4.50;;;4.40;99.90;;;;;;5057340;28;20188;-75
2021/01/09 08:33:01;;;;;;;7.55;4.75;;;4.60;99.90;;;;;;5061366;28;20240;-75
2021/01/09 08:35:29;;;;;;;5.93;4.50;;;4.40;99.90;;;;;;5058912;28;20216;-76
2021/01/09 08:37:56;;;;;;;4.82;3.03;;;3.60;99.90;;;;;;5059087;28;20184;-75
2021/01/09 08:40:25;;;;;;;6.35;3.55;;;2.90;99.90;;;;;;5061086;28;20185;-76
2021/01/09 08:43:04;;;;;;;8.93;4.28;;;2.60;99.90;;;;;;5077310;28;20215;-75
2021/01/09 08:45:36;;;;;;;5.50;3.70;;;2.40;99.90;;;;;;5061221;28;20204;-75
2021/01/09 08:48:04;;;;;;;4.70;3.58;;;2.30;99.90;;;;;;5061568;28;20180;-75
2021/01/09 08:50:34;;;;;;;6.28;4.85;;;2.20;99.90;;;;;;5061737;28;20204;-76
2021/01/09 08:53:05;;;;;;;7.63;4.00;;;2.20;99.90;;;;;;5061757;28;20240;-75
2021/01/09 08:55:34;;;;;;;6.55;4.40;;;2.20;99.90;;;;;;5060703;28;20214;-76
2021/01/09 08:58:02;;;;;;;5.90;3.95;;;2.10;99.90;;;;;;5061580;28;20177;-76
2021/01/09 09:00:30;;;;;;;7.78;5.50;;;2.00;99.90;;;;;;5060463;28;20201;-75
2021/01/09 09:02:59;;;;;;;5.53;5.00;;;2.00;99.90;;;;;;5059662;28;20211;-76
2021/01/09 09:05:27;;;;;;;10.85;6.65;;;1.90;99.90;;;;;;5061528;28;20214;-76
2021/01/09 09:07:56;;;;;;;8.85;6.03;;;1.90;99.90;;;;;;5061034;28;20174;-76
2021/01/09 09:10:25;;;;;;;5.30;4.35;;;1.80;99.90;;;;;;5060825;28;20283;-76
2021/01/09 09:12:52;;;;;;;5.82;3.63;;;1.80;99.90;;;;;;5060688;28;20188;-75
2021/01/09 09:15:30;;;;;;;10.80;5.70;;;1.70;99.90;;;;;;5058872;28;20256;-76
2021/01/09 09:17:57;;;;;;;6.70;4.75;;;1.70;99.90;;;;;;5057393;28;20200;-76
2021/01/09 09:20:25;;;;;;;5.13;3.30;;;1.80;99.90;;;;;;5060132;28;20184;-76
2021/01/09 09:22:52;;;;;;;8.60;6.30;;;1.70;99.90;;;;;;5060822;28;20184;-76
2021/01/09 09:25:23;;;;;;;8.77;5.93;;;1.70;99.90;;;;;;5063743;28;20212;-76
2021/01/09 09:27:51;;;;;;;6.93;4.65;;;1.80;99.90;;;;;;5077558;28;20247;-76
2021/01/09 09:30:19;;;;;;;9.32;5.68;;;1.80;99.90;;;;;;5062222;28;20193;-76
2021/01/09 09:32:47;;;;;;;7.70;4.13;;;1.80;99.90;;;;;;5062305;28;20181;-77
2021/01/09 09:35:19;;;;;;;9.85;5.28;;;1.80;99.90;;;;;;5060013;28;20217;-75
2021/01/09 09:37:47;;;;;;;5.45;3.15;;;1.80;99.90;;;;;;5066271;28;20224;-76
2021/01/09 09:40:23;;;;;;;6.45;4.88;;;1.80;99.90;;;;;;5063594;28;20192;-78
2021/01/09 09:42:50;;;;;;;6.57;4.22;;;1.90;99.90;;;;;;5063150;28;20188;-76
2021/01/09 09:45:17;;;;;;;7.60;4.90;;;1.90;99.90;;;;;;5061310;28;20213;-76
2021/01/09 09:47:49;;;;;;;9.98;5.20;;;1.90;99.90;;;;;;5060655;28;20196;-75
2021/01/09 09:50:21;;;;;;;6.40;3.35;;;1.90;99.90;;;;;;5061436;28;20296;-76
2021/01/09 09:52:58;;;;;;;11.40;6.57;;;2.00;99.90;;;;;;5061330;28;20174;-76
2021/01/09 09:55:25;;;;;;;9.10;5.60;;;2.00;99.90;;;;;;5058949;28;20295;-75
2021/01/09 09:58:07;;;;;;;8.65;3.88;;;2.00;99.90;;;;;;5056309;28;20575;-76
2021/01/09 10:00:42;;;;;;;11.40;4.40;;;2.00;99.90;;;;;;5054753;28;20173;-76
2021/01/09 10:03:10;;;;;;;4.32;3.20;;;2.10;99.90;;;;;;5056466;28;20179;-76
2021/01/09 10:05:37;;;;;;;11.85;4.20;;;2.10;99.90;;;;;;5054190;28;20217;-75
2021/01/09 10:08:12;;;;;;;8.63;6.00;;;2.20;99.90;;;;;;5053701;28;20173;-76
2021/01/09 10:10:40;;;;;;;9.13;6.05;;;2.20;99.90;;;;;;5053301;28;20200;-75
2021/01/09 10:13:08;;;;;;;12.73;6.68;;;2.20;99.90;;;;;;5054192;28;20196;-75
2021/01/09 10:15:35;;;;;;;8.57;4.55;;;2.10;99.90;;;;;;5069198;28;20300;-75
2021/01/09 10:18:02;;;;;;;8.85;5.20;;;2.10;99.90;;;;;;5054057;28;20185;-77
2021/01/09 10:20:31;;;;;;;7.57;5.57;;;2.20;99.90;;;;;;5055065;28;20234;-76
2021/01/09 10:23:02;;;;;;;13.00;7.43;;;2.10;99.90;;;;;;5071523;28;20199;-78
2021/01/09 10:25:31;;;;;;;12.25;6.05;;;2.10;99.90;;;;;;5055283;28;20220;-75
2021/01/09 10:27:59;;;;;;;5.60;4.57;;;2.20;99.90;;;;;;5054750;28;20625;-78
2021/01/09 10:30:26;;;;;;;7.85;6.38;;;2.10;99.90;;;;;;5054955;28;20276;-77
2021/01/09 10:32:56;;;;;;;7.20;3.80;;;2.00;99.90;;;;;;5055577;28;20215;-75
2021/01/09 10:35:24;;;;;;;15.35;5.00;;;2.00;99.90;;;;;;5055252;28;20224;-76
2021/01/09 10:37:52;;;;;;;9.50;6.22;;;2.10;99.90;;;;;;5053794;28;20268;-77
2021/01/09 10:40:19;;;;;;;4.90;3.03;;;2.20;99.90;;;;;;5054303;28;20184;-77
2021/01/09 10:42:47;;;;;;;7.65;4.65;;;2.20;99.90;;;;;;5056675;28;20200;-79
2021/01/09 10:45:15;;;;;;;12.70;5.18;;;2.30;99.90;;;;;;5057272;28;20212;-80
2021/01/09 10:47:43;;;;;;;7.75;4.95;;;2.20;99.90;;;;;;5055527;28;20203;-78
2021/01/09 10:50:33;;;;;;;8.38;5.35;;;2.20;99.90;;;;;;5055807;28;20201;-77
2021/01/09 10:53:07;;;;;;;12.15;8.27;;;2.30;99.90;;;;;;5056226;28;20173;-78
2021/01/09 10:55:40;;;;;;;7.97;5.38;;;2.30;99.90;;;;;;5061172;28;20201;-80
2021/01/09 10:58:07;;;;;;;14.52;7.25;;;2.30;99.90;;;;;;5072429;28;20605;-78
2021/01/09 11:00:35;;;;;;;6.72;5.25;;;2.40;99.90;;;;;;5057284;28;20234;-78
2021/01/09 11:03:03;;;;;;;8.52;6.47;;;2.40;99.90;;;;;;5062298;28;20173;-81
2021/01/09 11:05:52;;;;;;;9.80;5.75;;;2.40;99.90;;;;;;5063294;28;20319;-80
2021/01/09 11:08:23;;;;;;;9.55;5.22;;;2.30;99.90;;;;;;5058860;28;20197;-80
2021/01/09 11:10:53;;;;;;;9.52;5.97;;;2.30;99.90;;;;;;5060143;28;20307;-79
2021/01/09 11:13:26;;;;;;;14.60;6.60;;;2.30;99.90;;;;;;5057407;28;20185;-78
2021/01/09 11:15:57;;;;;;;8.45;5.15;;;2.30;99.90;;;;;;5057124;28;20196;-77
2021/01/09 11:18:27;;;;;;;8.25;5.13;;;2.30;99.90;;;;;;5058975;28;20266;-78
2021/01/09 11:20:55;;;;;;;15.73;7.55;;;2.30;99.90;;;;;;5060529;28;20212;-79
2021/01/09 11:23:23;;;;;;;12.45;5.90;;;2.40;99.90;;;;;;5059890;28;20180;-79
2021/01/09 11:25:50;;;;;;;10.60;5.45;;;2.40;99.90;;;;;;5075383;28;20227;-80
2021/01/09 11:28:18;;;;;;;8.43;4.93;;;2.40;99.90;;;;;;5055493;28;20212;-77
2021/01/09 11:30:58;;;;;;;;;;;;;;;;;;;;;
2021/01/09 11:33:48;;;;;;;9.48;7.80;;;2.40;99.90;;;;;;5059109;28;20212;-77
2021/01/09 11:36:45;;;;;;;9.45;5.82;;;2.50;99.90;;;;;;5050894;28;20215;-78
2021/01/09 11:39:15;;;;;;;11.82;5.13;;;2.50;99.90;;;;;;5064768;28;20176;-79
2021/01/09 11:41:48;;;;;;;12.13;5.30;;;2.60;99.90;;;;;;5059092;28;20177;-78
2021/01/09 11:44:18;;;;;;;10.43;5.85;;;2.80;99.90;;;;;;5061013;28;20209;-78
2021/01/09 11:46:52;;;;;;;10.77;6.63;;;2.80;99.90;;;;;;5058466;28;20185;-76
2021/01/09 11:49:19;;;;;;;8.52;6.15;;;2.80;99.90;;;;;;5058192;28;20632;-76
2021/01/09 11:51:57;;;;;;;12.57;6.53;;;2.80;99.90;;;;;;5058204;28;20300;-78
2021/01/09 11:54:26;;;;;;;11.70;6.38;;;2.90;99.90;;;;;;5055796;28;20312;-77
2021/01/09 11:56:56;;;;;;;9.23;5.90;;;2.90;99.90;;;;;;5075222;28;20235;-77
2021/01/09 11:59:27;;;;;;;10.57;5.00;;;2.90;99.90;;;;;;5059091;28;20215;-77
2021/01/09 12:01:57;;;;;;;6.43;4.95;;;2.90;99.90;;;;;;5060159;28;20181;-79
2021/01/09 12:04:34;;;;;;;8.82;5.57;;;2.90;99.90;;;;;;5060217;28;20207;-77
2021/01/09 12:07:07;;;;;;;10.75;5.22;;;2.80;99.90;;;;;;5060650;28;20180;-77
2021/01/09 12:09:53;;;;;;;7.00;5.05;;;2.70;99.90;;;;;;5066074;28;20256;-80
2021/01/09 12:12:26;;;;;;;7.82;4.63;;;2.70;99.90;;;;;;5070982;28;20260;-78
2021/01/09 12:15:04;;;;;;;9.50;4.65;;;2.70;99.90;;;;;;5069048;28;20220;-75
2021/01/09 12:17:34;;;;;;;8.48;4.90;;;2.80;99.90;;;;;;5063562;28;20181;-78
2021/01/09 12:20:03;;;;;;;9.25;4.90;;;2.70;99.90;;;;;;5066518;28;20176;-77
2021/01/09 12:22:31;;;;;;;8.32;4.97;;;2.80;99.90;;;;;;5063283;28;20173;-78
2021/01/09 12:24:59;;;;;;;13.35;5.00;;;2.90;99.90;;;;;;5058931;28;20209;-77
2021/01/09 12:27:27;;;;;;;10.23;5.20;;;2.90;99.90;;;;;;5058995;28;20239;-77
2021/01/09 12:29:54;;;;;;;15.20;4.78;;;3.00;99.90;;;;;;5058405;28;20244;-76
2021/01/09 12:32:37;;;;;;;8.68;5.80;;;3.10;99.90;;;;;;5056921;28;20184;-76
2021/01/09 12:35:06;;;;;;;12.82;5.80;;;3.00;99.90;;;;;;5057547;28;20679;-76
2021/01/09 12:37:34;;;;;;;11.88;7.18;;;3.00;99.90;;;;;;5058433;28;20239;-77
2021/01/09 12:40:03;;;;;;;13.50;7.57;;;3.00;99.90;;;;;;5060028;28;20172;-77
2021/01/09 12:42:31;;;;;;;9.07;6.50;;;2.90;99.90;;;;;;5062677;28;20203;-81
2021/01/09 12:45:15;;;;;;;14.13;5.75;;;3.00;99.90;;;;;;5057497;28;20301;-78
2021/01/09 12:47:45;;;;;;;13.10;8.35;;;3.10;99.90;;;;;;5059747;28;20197;-78
2021/01/09 12:50:13;;;;;;;10.10;6.00;;;3.10;99.90;;;;;;5057415;28;20303;-77
2021/01/09 12:52:42;;;;;;;13.55;7.30;;;3.20;99.90;;;;;;5059430;28;20177;-77
2021/01/09 12:55:11;;;;;;;10.07;4.75;;;3.20;99.90;;;;;;5057507;28;20213;-76
2021/01/09 12:57:40;;;;;;;17.30;7.18;;;3.30;99.90;;;;;;5057728;28;20173;-79
2021/01/09 13:00:15;;;;;;;10.77;8.27;;;3.30;99.90;;;;;;5057780;28;20264;-77
2021/01/09 13:02:44;;;;;;;15.15;6.13;;;3.10;99.90;;;;;;5058160;28;20199;-79
2021/01/09 13:05:13;;;;;;;18.17;7.35;;;3.00;99.90;;;;;;5057928;28;20652;-76
2021/01/09 13:07:43;;;;;;;9.98;5.82;;;3.00;99.90;;;;;;5057584;28;20219;-76
2021/01/09 13:10:12;;;;;;;14.07;7.65;;;3.00;99.90;;;;;;5056564;28;20276;-76